createdAt,value
2023-03-31T00:01:19.668Z,21.03
2023-03-31T00:03:25.128Z,21.04
2023-03-31T00:05:26.593Z,21.06
2023-03-31T00:07:27.891Z,21.13
2023-03-31T00:09:29.973Z,21.13
2023-03-31T00:11:31.394Z,21.07
2023-03-31T00:13:32.712Z,21.01
2023-03-31T00:15:34.004Z,20.96
2023-03-31T00:17:35.340Z,20.94
2023-03-31T00:19:36.648Z,20.96
2023-03-31T00:21:37.947Z,20.95
2023-03-31T00:23:39.279Z,20.96
2023-03-31T00:25:43.732Z,20.92
2023-03-31T00:27:45.092Z,20.92
2023-03-31T00:29:47.293Z,20.91
2023-03-31T00:31:48.625Z,20.92
2023-03-31T00:33:50.034Z,20.90
2023-03-31T00:35:51.951Z,20.87
2023-03-31T00:37:53.997Z,20.89
2023-03-31T00:39:55.292Z,20.93
2023-03-31T00:41:56.587Z,20.94
2023-03-31T00:43:57.911Z,20.92
2023-03-31T00:45:59.236Z,20.91
2023-03-31T00:48:01.117Z,20.93
2023-03-31T00:50:02.422Z,20.91
2023-03-31T00:52:05.156Z,20.91
2023-03-31T00:54:06.450Z,20.89
2023-03-31T00:56:08.221Z,20.90
2023-03-31T00:58:09.695Z,20.87
2023-03-31T01:00:17.278Z,20.88
2023-03-31T01:02:20.816Z,20.86
2023-03-31T01:04:22.888Z,20.89
2023-03-31T01:06:25.337Z,20.89
2023-03-31T01:08:27.160Z,20.86
2023-03-31T01:10:28.486Z,20.85
2023-03-31T01:12:29.777Z,20.83
2023-03-31T01:14:31.125Z,20.83
2023-03-31T01:16:34.037Z,20.86
2023-03-31T01:18:35.447Z,20.89
2023-03-31T01:20:36.757Z,20.90
2023-03-31T01:22:39.018Z,20.90
2023-03-31T01:24:40.312Z,20.90
2023-03-31T01:26:42.094Z,20.90
2023-03-31T01:28:43.422Z,20.92
2023-03-31T01:30:44.808Z,20.93
2023-03-31T01:32:46.419Z,20.93
2023-03-31T01:34:47.769Z,20.94
2023-03-31T01:36:49.069Z,20.93
2023-03-31T01:38:50.431Z,20.95
2023-03-31T01:40:51.845Z,20.93
2023-03-31T01:42:53.278Z,20.95
2023-03-31T01:44:54.623Z,20.94
2023-03-31T01:46:55.920Z,20.94
2023-03-31T01:48:57.211Z,20.96
2023-03-31T01:50:58.504Z,20.98
2023-03-31T01:52:59.798Z,21.04
2023-03-31T01:55:01.146Z,21.07
2023-03-31T01:57:02.466Z,21.09
2023-03-31T01:59:03.855Z,21.09
2023-03-31T02:01:05.914Z,21.13
2023-03-31T02:03:08.018Z,21.14
2023-03-31T02:05:09.914Z,21.15
2023-03-31T02:07:12.103Z,21.14
2023-03-31T02:09:13.471Z,21.14
2023-03-31T02:11:14.814Z,21.13
2023-03-31T02:13:16.190Z,21.13
2023-03-31T02:15:18.337Z,21.14
2023-03-31T02:17:19.654Z,21.14
2023-03-31T02:19:20.949Z,21.13
2023-03-31T02:21:22.850Z,21.11
2023-03-31T02:23:26.583Z,21.12
2023-03-31T02:25:28.079Z,21.11
2023-03-31T02:27:29.422Z,21.09
2023-03-31T02:29:30.867Z,21.10
2023-03-31T02:31:32.306Z,21.09
2023-03-31T02:33:33.658Z,21.05
2023-03-31T02:35:36.780Z,21.02
2023-03-31T02:37:38.157Z,20.96
2023-03-31T02:39:39.497Z,20.95
2023-03-31T02:41:41.304Z,20.92
2023-03-31T02:43:42.821Z,20.90
2023-03-31T02:45:44.209Z,20.88
2023-03-31T02:47:45.702Z,20.85
2023-03-31T02:49:47.174Z,20.87
2023-03-31T02:51:48.627Z,20.88
2023-03-31T02:53:49.967Z,20.86
2023-03-31T02:55:51.383Z,20.83
2023-03-31T02:57:52.713Z,20.82
2023-03-31T02:59:54.003Z,20.85
2023-03-31T03:01:55.294Z,20.85
2023-03-31T03:03:56.601Z,20.86
2023-03-31T03:05:58.859Z,20.90
2023-03-31T03:08:00.421Z,20.97
2023-03-31T03:10:02.174Z,21.05
2023-03-31T03:12:03.485Z,21.09
2023-03-31T03:14:06.144Z,21.12
2023-03-31T03:16:07.535Z,21.14
2023-03-31T03:18:08.980Z,21.17
2023-03-31T03:20:10.706Z,21.20
2023-03-31T03:22:12.031Z,21.25
2023-03-31T03:24:13.324Z,21.26
2023-03-31T03:26:14.623Z,21.27
2023-03-31T03:28:15.912Z,21.26
2023-03-31T03:30:17.254Z,21.26
2023-03-31T03:32:18.560Z,21.25
2023-03-31T03:34:20.316Z,21.24
2023-03-31T03:36:23.070Z,21.22
2023-03-31T03:38:24.555Z,21.21
2023-03-31T03:40:25.926Z,21.18
2023-03-31T03:42:27.222Z,21.17
2023-03-31T03:44:28.564Z,21.14
2023-03-31T03:46:29.936Z,21.13
2023-03-31T03:48:31.247Z,21.07
2023-03-31T03:50:32.601Z,21.06
2023-03-31T03:52:33.906Z,21.04
2023-03-31T03:54:35.204Z,21.00
2023-03-31T03:56:36.542Z,21.00
2023-03-31T03:58:37.986Z,20.98
2023-03-31T04:00:39.324Z,20.98
2023-03-31T04:02:40.885Z,20.96
2023-03-31T04:04:42.378Z,20.92
2023-03-31T04:06:43.730Z,20.88
2023-03-31T04:08:45.023Z,20.83
2023-03-31T04:10:46.577Z,20.83
2023-03-31T04:12:47.921Z,20.81
2023-03-31T04:14:49.276Z,20.76
2023-03-31T04:16:50.623Z,20.72
2023-03-31T04:18:52.906Z,20.69
2023-03-31T04:21:06.576Z,20.67
2023-03-31T04:23:09.755Z,20.70
2023-03-31T04:25:15.020Z,20.68
2023-03-31T04:27:17.767Z,20.70
2023-03-31T04:29:22.643Z,20.72
2023-03-31T04:31:26.878Z,20.87
2023-03-31T04:33:28.197Z,20.89
2023-03-31T04:35:42.840Z,20.94
2023-03-31T04:37:44.291Z,21.05
2023-03-31T04:39:46.714Z,21.02
2023-03-31T04:41:48.052Z,21.03
2023-03-31T04:43:49.377Z,21.05
2023-03-31T04:45:50.816Z,21.08
2023-03-31T04:47:52.242Z,21.11
2023-03-31T04:49:53.738Z,21.13
2023-03-31T04:51:55.289Z,21.15
2023-03-31T04:53:56.590Z,21.18
2023-03-31T04:55:57.882Z,21.18
2023-03-31T04:57:59.188Z,21.18
2023-03-31T05:00:00.567Z,21.18
2023-03-31T05:02:02.273Z,21.18
2023-03-31T05:04:03.721Z,21.18
2023-03-31T05:06:05.327Z,21.17
2023-03-31T05:08:06.900Z,21.18
2023-03-31T05:10:08.258Z,21.16
2023-03-31T05:12:09.556Z,21.11
2023-03-31T05:14:11.107Z,21.09
2023-03-31T05:16:14.462Z,21.07
2023-03-31T05:18:15.999Z,21.05
2023-03-31T05:20:17.694Z,20.16
2023-03-31T05:22:20.748Z,21.08
2023-03-31T05:24:22.300Z,20.97
2023-03-31T05:26:25.110Z,20.90
2023-03-31T05:28:26.402Z,20.71
2023-03-31T05:30:27.719Z,20.61
2023-03-31T05:32:29.103Z,20.62
2023-03-31T05:34:30.869Z,20.63
2023-03-31T05:36:32.296Z,20.64
2023-03-31T05:38:34.655Z,20.61
2023-03-31T05:40:35.970Z,20.58
2023-03-31T05:42:37.292Z,20.56
2023-03-31T05:44:38.593Z,20.54
2023-03-31T05:46:39.934Z,20.53
2023-03-31T05:48:41.307Z,20.52
2023-03-31T05:50:43.127Z,20.54
2023-03-31T05:52:44.528Z,20.54
2023-03-31T05:54:45.817Z,20.55
2023-03-31T05:56:47.156Z,20.58
2023-03-31T05:58:48.525Z,20.61
2023-03-31T06:00:49.851Z,20.67
2023-03-31T06:02:51.534Z,20.72
2023-03-31T06:04:53.150Z,20.76
2023-03-31T06:06:55.952Z,20.77
2023-03-31T06:08:57.278Z,20.81
2023-03-31T06:10:58.643Z,20.83
2023-03-31T06:13:00.033Z,20.87
2023-03-31T06:15:01.480Z,20.90
2023-03-31T06:17:02.856Z,20.90
2023-03-31T06:19:04.147Z,20.93
2023-03-31T06:21:05.935Z,20.95
2023-03-31T06:23:07.439Z,20.93
2023-03-31T06:25:08.768Z,20.94
2023-03-31T06:27:10.327Z,20.60
2023-03-31T06:29:11.662Z,20.95
2023-03-31T06:31:13.041Z,20.97
2023-03-31T06:33:14.513Z,20.96
2023-03-31T06:35:16.752Z,20.93
2023-03-31T06:37:18.103Z,20.95
2023-03-31T06:39:19.397Z,20.96
2023-03-31T06:41:21.259Z,20.91
2023-03-31T06:43:22.707Z,20.91
2023-03-31T06:45:24.054Z,20.93
2023-03-31T06:47:25.439Z,20.90
2023-03-31T06:49:26.902Z,20.90
2023-03-31T06:51:29.669Z,20.88
2023-03-31T06:53:32.141Z,20.88
2023-03-31T06:55:33.969Z,20.87
2023-03-31T06:57:35.320Z,20.84
2023-03-31T06:59:36.717Z,20.81
2023-03-31T07:01:39.235Z,20.79
2023-03-31T07:03:40.827Z,20.78
2023-03-31T07:05:42.237Z,20.76
2023-03-31T07:07:46.179Z,20.73
2023-03-31T07:09:47.752Z,20.73
2023-03-31T07:11:49.042Z,20.68
2023-03-31T07:13:50.373Z,20.63
2023-03-31T07:15:51.746Z,20.57
2023-03-31T07:18:02.654Z,20.56
2023-03-31T07:20:04.532Z,20.55
2023-03-31T07:22:06.178Z,20.52
2023-03-31T07:24:07.573Z,20.54
2023-03-31T07:26:08.945Z,20.54
2023-03-31T07:28:10.284Z,20.59
2023-03-31T07:30:11.619Z,20.63
2023-03-31T07:32:13.128Z,20.65
2023-03-31T07:34:14.484Z,20.67
2023-03-31T07:36:16.076Z,20.68
2023-03-31T07:38:17.693Z,20.70
2023-03-31T07:40:18.997Z,20.73
2023-03-31T07:42:20.643Z,20.76
2023-03-31T07:44:23.402Z,20.78
2023-03-31T07:46:24.859Z,20.81
2023-03-31T07:48:28.733Z,20.85
2023-03-31T07:50:30.405Z,20.84
2023-03-31T07:52:31.785Z,20.85
2023-03-31T07:54:33.104Z,20.87
2023-03-31T07:56:34.417Z,20.88
2023-03-31T07:58:35.898Z,20.89
2023-03-31T08:00:37.251Z,20.89
2023-03-31T08:02:38.710Z,20.91
2023-03-31T08:04:42.275Z,20.93
2023-03-31T08:06:46.497Z,20.92
2023-03-31T08:08:47.792Z,20.98
2023-03-31T08:10:49.133Z,21.00
2023-03-31T08:12:50.432Z,21.05
2023-03-31T08:14:51.724Z,21.08
2023-03-31T08:16:55.351Z,21.11
2023-03-31T08:18:56.653Z,21.11
2023-03-31T08:20:58.002Z,21.09
2023-03-31T08:22:59.337Z,21.09
2023-03-31T08:25:00.690Z,21.06
2023-03-31T08:27:02.059Z,21.04
2023-03-31T08:29:04.152Z,20.98
2023-03-31T08:31:05.919Z,20.91
2023-03-31T08:33:07.855Z,20.95
2023-03-31T08:35:09.739Z,20.96
2023-03-31T08:37:11.204Z,20.90
2023-03-31T08:39:13.061Z,20.90
2023-03-31T08:41:14.399Z,20.86
2023-03-31T08:43:15.727Z,20.87
2023-03-31T08:45:17.084Z,20.85
2023-03-31T08:47:18.424Z,20.85
2023-03-31T08:49:19.772Z,20.81
2023-03-31T08:51:21.876Z,20.77
2023-03-31T08:53:23.175Z,20.72
2023-03-31T08:55:24.489Z,20.66
2023-03-31T08:57:25.851Z,20.62
2023-03-31T08:59:30.433Z,20.60
2023-03-31T09:01:37.963Z,20.60
2023-03-31T09:03:45.941Z,20.58
2023-03-31T09:06:12.544Z,20.60
2023-03-31T09:08:08.622Z,20.64
2023-03-31T09:10:09.923Z,20.64
2023-03-31T09:12:11.253Z,20.65
2023-03-31T09:14:12.538Z,20.67
2023-03-31T09:16:16.309Z,20.71
2023-03-31T09:18:18.083Z,20.74
2023-03-31T09:20:19.438Z,20.74
2023-03-31T09:22:21.000Z,20.75
2023-03-31T09:24:23.678Z,20.76
2023-03-31T09:26:25.081Z,20.79
2023-03-31T09:28:27.222Z,20.82
2023-03-31T09:30:28.525Z,20.82
2023-03-31T09:32:30.059Z,20.83
2023-03-31T09:34:31.777Z,20.84
2023-03-31T09:36:33.204Z,20.83
2023-03-31T09:38:34.518Z,20.79
2023-03-31T09:40:35.952Z,20.78
2023-03-31T09:42:37.315Z,20.74
2023-03-31T09:44:38.658Z,20.70
2023-03-31T09:46:40.010Z,20.68
2023-03-31T09:48:41.620Z,20.69
2023-03-31T09:50:42.903Z,20.69
2023-03-31T09:52:44.218Z,20.67
2023-03-31T09:54:45.595Z,20.67
2023-03-31T09:56:48.700Z,20.70
2023-03-31T09:58:50.184Z,20.69
2023-03-31T10:00:51.720Z,20.67
2023-03-31T10:02:53.118Z,20.67
2023-03-31T10:04:54.541Z,20.62
2023-03-31T10:06:55.849Z,20.62
2023-03-31T10:08:58.323Z,20.61
2023-03-31T10:11:01.270Z,20.61
2023-03-31T10:13:02.565Z,20.60
2023-03-31T10:15:03.871Z,20.60
2023-03-31T10:17:05.780Z,20.62
2023-03-31T10:19:07.095Z,20.61
2023-03-31T10:21:08.641Z,20.60
2023-03-31T10:23:10.036Z,20.58
2023-03-31T10:25:11.544Z,20.55
2023-03-31T10:27:12.983Z,20.54
2023-03-31T10:29:14.360Z,20.56
2023-03-31T10:31:16.053Z,20.52
2023-03-31T10:33:22.592Z,20.53
2023-03-31T10:35:24.790Z,20.54
2023-03-31T10:37:26.198Z,20.55
2023-03-31T10:39:27.513Z,20.54
2023-03-31T10:41:28.905Z,20.49
2023-03-31T10:43:30.326Z,20.45
2023-03-31T10:45:37.885Z,20.47
2023-03-31T10:47:39.779Z,20.49
2023-03-31T10:49:41.159Z,20.50
2023-03-31T10:51:45.256Z,20.54
2023-03-31T10:53:46.879Z,20.57
2023-03-31T10:55:48.180Z,20.56
2023-03-31T10:57:49.469Z,20.58
2023-03-31T10:59:52.074Z,20.60
2023-03-31T11:01:53.785Z,20.61
2023-03-31T11:03:55.824Z,20.62
2023-03-31T11:05:57.279Z,20.62
2023-03-31T11:07:58.583Z,20.62
2023-03-31T11:09:59.918Z,20.60
2023-03-31T11:12:01.229Z,20.56
2023-03-31T11:14:02.588Z,20.51
2023-03-31T11:16:03.982Z,20.49
2023-03-31T11:18:05.435Z,20.44
2023-03-31T11:20:07.223Z,20.43
2023-03-31T11:22:09.806Z,20.44
2023-03-31T11:24:11.102Z,20.44
2023-03-31T11:26:12.427Z,20.46
2023-03-31T11:28:13.725Z,20.47
2023-03-31T11:30:15.069Z,20.48
2023-03-31T11:32:16.852Z,20.51
2023-03-31T11:34:19.044Z,20.53
2023-03-31T11:36:20.419Z,20.54
2023-03-31T11:38:23.899Z,20.54
2023-03-31T11:40:26.160Z,20.56
2023-03-31T11:42:27.465Z,20.56
2023-03-31T11:44:28.804Z,20.53
2023-03-31T11:46:30.434Z,20.52
2023-03-31T11:48:31.773Z,20.48
2023-03-31T11:50:33.065Z,20.44
2023-03-31T11:52:34.417Z,20.40
2023-03-31T11:54:35.925Z,20.34
2023-03-31T11:56:37.227Z,20.33
2023-03-31T11:58:38.513Z,20.34
2023-03-31T12:00:39.802Z,20.38
2023-03-31T12:02:41.499Z,19.47
2023-03-31T12:04:42.879Z,20.41
2023-03-31T12:06:46.608Z,19.64
2023-03-31T12:08:47.959Z,20.47
2023-03-31T12:10:49.339Z,20.50
2023-03-31T12:12:51.086Z,20.52
2023-03-31T12:14:52.382Z,20.57
2023-03-31T12:16:53.725Z,20.61
2023-03-31T12:18:55.116Z,20.64
2023-03-31T12:20:56.443Z,20.65
2023-03-31T12:22:57.768Z,20.69
2023-03-31T12:24:59.120Z,20.70
2023-03-31T12:27:00.560Z,20.72
2023-03-31T12:29:04.132Z,20.73
2023-03-31T12:31:05.567Z,20.75
2023-03-31T12:33:07.172Z,20.73
2023-03-31T12:35:08.626Z,20.76
2023-03-31T12:37:11.124Z,20.75
2023-03-31T12:39:12.484Z,20.74
2023-03-31T12:41:15.022Z,20.70
2023-03-31T12:43:16.510Z,20.69
2023-03-31T12:45:17.868Z,20.66
2023-03-31T12:47:19.215Z,20.66
2023-03-31T12:49:20.551Z,20.63
2023-03-31T12:51:21.907Z,20.65
2023-03-31T12:53:24.213Z,20.67
2023-03-31T12:55:25.550Z,20.69
2023-03-31T12:57:27.052Z,20.67
2023-03-31T12:59:29.136Z,20.67
2023-03-31T13:01:30.664Z,20.68
2023-03-31T13:03:33.958Z,20.67
2023-03-31T13:05:35.477Z,20.68
2023-03-31T13:07:37.086Z,20.69
2023-03-31T13:09:38.371Z,20.70
2023-03-31T13:11:39.716Z,20.70
2023-03-31T13:13:54.224Z,20.67
2023-03-31T13:16:02.219Z,20.61
2023-03-31T13:18:03.530Z,20.57
2023-03-31T13:20:05.216Z,20.51
2023-03-31T13:22:06.890Z,20.48
2023-03-31T13:24:08.200Z,20.43
2023-03-31T13:26:09.552Z,20.41
2023-03-31T13:28:11.168Z,20.40
2023-03-31T13:30:12.520Z,20.38
2023-03-31T13:32:13.889Z,20.40
2023-03-31T13:34:15.401Z,20.41
2023-03-31T13:36:16.780Z,20.36
2023-03-31T13:38:18.101Z,20.38
2023-03-31T13:40:19.441Z,20.44
2023-03-31T13:42:20.835Z,20.47
2023-03-31T13:44:22.139Z,20.51
2023-03-31T13:46:26.406Z,20.56
2023-03-31T13:48:27.766Z,20.58
2023-03-31T13:50:29.083Z,20.61
2023-03-31T13:52:30.592Z,20.70
2023-03-31T13:54:31.963Z,21.46
2023-03-31T13:56:33.276Z,21.84
2023-03-31T13:58:35.586Z,21.94
2023-03-31T14:00:37.100Z,22.01
2023-03-31T14:02:38.663Z,22.33
2023-03-31T14:04:40.048Z,22.02
2023-03-31T14:06:41.406Z,21.87
2023-03-31T14:08:42.753Z,21.80
2023-03-31T14:10:44.047Z,22.22
2023-03-31T14:12:47.702Z,22.22
2023-03-31T14:14:49.205Z,22.06
2023-03-31T14:16:50.543Z,21.99
2023-03-31T14:18:52.894Z,22.00
2023-03-31T14:20:54.230Z,22.25
2023-03-31T14:22:58.588Z,22.38
2023-03-31T14:24:59.883Z,22.44
2023-03-31T14:27:02.245Z,22.65
2023-03-31T14:29:03.548Z,22.09
2023-03-31T14:31:05.110Z,21.70
2023-03-31T14:33:06.492Z,21.77
2023-03-31T14:35:07.946Z,21.86
2023-03-31T14:37:09.644Z,22.04
2023-03-31T14:39:17.011Z,22.26
2023-03-31T14:41:20.136Z,22.23
2023-03-31T14:43:21.657Z,22.21
2023-03-31T14:45:25.794Z,22.02
2023-03-31T14:47:32.086Z,22.34
2023-03-31T14:49:33.430Z,22.19
2023-03-31T14:51:34.723Z,21.85
2023-03-31T14:53:36.223Z,21.70
2023-03-31T14:55:54.223Z,21.92
2023-03-31T14:57:58.838Z,21.71
2023-03-31T15:00:00.742Z,21.80
2023-03-31T15:02:02.194Z,22.46
2023-03-31T15:04:07.192Z,22.47
2023-03-31T15:06:08.504Z,22.26
2023-03-31T15:08:18.977Z,22.04
2023-03-31T15:10:26.486Z,21.73
2023-03-31T15:12:27.808Z,21.35
2023-03-31T15:14:29.104Z,21.13
2023-03-31T15:16:30.579Z,21.02
2023-03-31T15:18:31.931Z,20.93
2023-03-31T15:20:35.077Z,20.90
2023-03-31T15:22:36.556Z,20.96
2023-03-31T15:24:37.876Z,20.98
2023-03-31T15:26:41.687Z,21.00
2023-03-31T15:28:43.794Z,21.00
2023-03-31T15:35:33.810Z,21.02
2023-03-31T15:37:35.114Z,21.04
2023-03-31T15:39:36.534Z,21.02
2023-03-31T15:41:37.917Z,21.44
2023-03-31T15:43:39.217Z,21.73
2023-03-31T15:45:40.666Z,21.97
2023-03-31T15:47:42.096Z,21.92
2023-03-31T15:49:44.034Z,21.86
2023-03-31T15:51:45.433Z,22.09
2023-03-31T15:53:46.754Z,22.05
2023-03-31T15:55:50.847Z,22.51
2023-03-31T15:57:52.147Z,22.47
2023-03-31T15:59:57.908Z,22.67
2023-03-31T16:02:00.042Z,22.61
2023-03-31T16:04:02.183Z,22.38
2023-03-31T16:06:03.484Z,22.06
2023-03-31T16:08:04.862Z,21.66
2023-03-31T16:10:06.409Z,21.37
2023-03-31T16:12:07.705Z,21.17
2023-03-31T16:14:09.003Z,21.09
2023-03-31T16:16:10.555Z,21.36
2023-03-31T16:18:12.085Z,21.94
2023-03-31T16:20:13.919Z,22.07
2023-03-31T16:22:15.399Z,22.08
2023-03-31T16:24:16.724Z,22.00
2023-03-31T16:26:18.035Z,22.06
2023-03-31T16:28:19.335Z,22.09
2023-03-31T16:30:21.128Z,22.08
2023-03-31T16:32:28.408Z,22.07
2023-03-31T16:34:29.730Z,22.09
2023-03-31T16:36:31.403Z,22.00
2023-03-31T16:38:32.757Z,21.62
2023-03-31T16:40:34.065Z,21.41
2023-03-31T16:42:35.385Z,21.69
2023-03-31T16:44:36.710Z,21.84
2023-03-31T16:46:38.055Z,22.04
2023-03-31T16:50:55.768Z,22.60
2023-03-31T16:52:57.189Z,22.88
2023-03-31T16:54:58.565Z,23.04
2023-03-31T16:57:00.258Z,22.98
2023-03-31T16:59:02.229Z,23.05
2023-03-31T17:01:04.130Z,23.14
2023-03-31T17:03:05.844Z,22.98
2023-03-31T17:05:13.259Z,23.07
2023-03-31T17:07:14.885Z,22.96
2023-03-31T17:09:16.257Z,22.55
2023-03-31T17:11:17.602Z,21.93
2023-03-31T17:13:18.893Z,21.57
2023-03-31T17:15:20.243Z,21.38
2023-03-31T17:17:21.934Z,21.26
2023-03-31T17:19:23.451Z,21.18
2023-03-31T17:21:26.217Z,21.12
2023-03-31T17:23:27.904Z,21.07
2023-03-31T17:25:29.363Z,21.04
2023-03-31T17:27:30.925Z,21.01
2023-03-31T17:29:32.406Z,20.98
2023-03-31T17:31:33.739Z,20.96
2023-03-31T17:33:35.036Z,20.94
2023-03-31T17:35:36.403Z,20.93
2023-03-31T17:37:38.571Z,21.06
2023-03-31T17:39:40.550Z,21.35
2023-03-31T17:41:41.886Z,21.53
2023-03-31T17:43:43.203Z,21.65
2023-03-31T17:45:44.499Z,21.71
2023-03-31T17:47:46.374Z,21.83
2023-03-31T17:49:47.746Z,21.69
2023-03-31T17:51:49.099Z,21.49
2023-03-31T17:53:50.901Z,21.52
2023-03-31T17:55:55.281Z,22.07
2023-03-31T17:57:57.361Z,22.52
2023-03-31T17:59:58.659Z,22.80
2023-03-31T18:02:01.094Z,22.86
2023-03-31T18:04:02.926Z,22.84
2023-03-31T18:06:04.803Z,22.93
2023-03-31T18:08:06.215Z,23.25
2023-03-31T18:10:07.513Z,22.81
2023-03-31T18:12:09.706Z,22.58
2023-03-31T18:14:11.199Z,22.91
2023-03-31T18:16:15.762Z,23.06
2023-03-31T18:18:18.647Z,23.05
2023-03-31T18:20:19.959Z,23.28
2023-03-31T18:22:21.579Z,23.46
2023-03-31T18:24:22.950Z,23.72
2023-03-31T18:26:24.261Z,23.67
2023-03-31T18:28:25.555Z,23.49
2023-03-31T18:30:27.898Z,23.41
2023-03-31T18:32:29.312Z,23.19
2023-03-31T18:34:30.673Z,23.44
2023-03-31T18:36:33.028Z,23.25
2023-03-31T18:38:34.523Z,23.04
2023-03-31T18:40:38.700Z,22.92
2023-03-31T18:42:43.247Z,22.74
2023-03-31T18:44:44.763Z,22.66
2023-03-31T18:46:46.164Z,22.62
2023-03-31T18:48:48.501Z,22.57
2023-03-31T18:50:51.305Z,21.40
2023-03-31T18:52:54.574Z,21.87
2023-03-31T18:54:56.609Z,21.69
2023-03-31T18:56:57.954Z,21.47
2023-03-31T18:58:59.584Z,22.61
2023-03-31T19:01:01.287Z,22.54
2023-03-31T19:03:02.947Z,22.56
2023-03-31T19:05:04.311Z,22.73
2023-03-31T19:07:05.905Z,22.62
2023-03-31T19:09:10.523Z,22.54
2023-03-31T19:11:12.712Z,22.64
2023-03-31T19:13:14.071Z,22.46
2023-03-31T19:15:15.500Z,22.21
2023-03-31T19:17:17.811Z,22.09
2023-03-31T19:19:19.207Z,22.02
2023-03-31T19:21:20.969Z,22.02
2023-03-31T19:23:22.282Z,22.13
2023-03-31T19:25:24.308Z,22.02
2023-03-31T19:27:25.633Z,21.87
2023-03-31T19:29:30.850Z,21.51
2023-03-31T19:31:38.464Z,21.51
2023-03-31T19:33:39.909Z,21.65
2023-03-31T19:35:41.242Z,21.74
2023-03-31T19:37:42.596Z,22.17
2023-03-31T19:39:44.580Z,22.48
2023-03-31T19:41:45.960Z,22.63
2023-03-31T19:43:47.919Z,22.46
2023-03-31T19:45:52.015Z,22.67
2023-03-31T19:47:53.424Z,22.59
2023-03-31T19:49:54.767Z,22.75
2023-03-31T19:51:56.562Z,22.75
2023-03-31T19:53:58.568Z,22.86
2023-03-31T19:55:59.920Z,22.79
2023-03-31T19:58:01.803Z,22.75
2023-03-31T20:00:04.215Z,22.75
2023-03-31T20:02:06.891Z,22.76
2023-03-31T20:04:08.805Z,22.74
2023-03-31T20:06:10.219Z,22.70
2023-03-31T20:08:11.513Z,22.65
2023-03-31T20:10:13.997Z,22.61
2023-03-31T20:12:15.734Z,22.37
2023-03-31T20:14:17.512Z,22.06
2023-03-31T20:16:19.137Z,22.07
2023-03-31T20:18:20.563Z,22.33
2023-03-31T20:20:22.325Z,22.36
2023-03-31T20:22:23.630Z,22.36
2023-03-31T20:24:33.959Z,22.31
2023-03-31T20:26:35.450Z,22.29
2023-03-31T20:28:36.948Z,22.25
2023-03-31T20:30:38.257Z,22.25
2023-03-31T20:32:39.587Z,22.27
2023-03-31T20:34:41.151Z,22.29
2023-03-31T20:36:42.562Z,22.21
2023-03-31T20:38:53.175Z,22.16
2023-03-31T20:40:55.196Z,22.17
2023-03-31T20:42:56.491Z,22.08
2023-03-31T20:44:57.794Z,22.03
2023-03-31T20:47:03.124Z,22.04
2023-03-31T20:49:09.893Z,22.04
2023-03-31T20:51:11.479Z,22.08
2023-03-31T20:53:12.832Z,22.12
2023-03-31T20:55:14.141Z,22.15
2023-03-31T20:57:15.524Z,22.15
2023-03-31T20:59:16.999Z,22.14
2023-03-31T21:01:18.461Z,22.14
2023-03-31T21:03:19.811Z,22.17
2023-03-31T21:05:21.388Z,22.15
2023-03-31T21:07:22.771Z,22.24
2023-03-31T21:09:24.085Z,22.27
2023-03-31T21:11:25.427Z,22.81
2023-03-31T21:13:26.820Z,22.83
2023-03-31T21:15:28.121Z,22.60
2023-03-31T21:17:29.419Z,22.39
2023-03-31T21:19:31.889Z,22.32
2023-03-31T21:21:35.271Z,22.28
2023-03-31T21:23:36.630Z,22.31
2023-03-31T21:25:37.939Z,22.37
2023-03-31T21:27:39.239Z,22.37
2023-03-31T21:29:40.533Z,22.31
2023-03-31T21:31:42.134Z,21.96
2023-03-31T21:33:43.581Z,22.08
2023-03-31T21:35:44.931Z,22.33
2023-03-31T21:37:46.515Z,22.36
2023-03-31T21:39:47.816Z,22.44
2023-03-31T21:41:49.099Z,22.46
2023-03-31T21:43:51.347Z,22.46
2023-03-31T21:45:54.495Z,22.51
2023-03-31T21:47:55.827Z,22.51
2023-03-31T21:49:57.279Z,22.48
2023-03-31T21:51:59.351Z,22.47
2023-03-31T21:54:00.659Z,22.51
2023-03-31T21:56:02.236Z,22.54
2023-03-31T21:58:04.505Z,22.53
2023-03-31T22:00:06.233Z,22.51
2023-03-31T22:02:07.586Z,22.51
2023-03-31T22:04:09.373Z,22.46
2023-03-31T22:06:11.224Z,22.39
2023-03-31T22:08:12.548Z,22.43
2023-03-31T22:10:13.879Z,22.40
2023-03-31T22:12:15.494Z,22.38
2023-03-31T22:14:16.798Z,22.33
2023-03-31T22:16:18.182Z,22.27
2023-03-31T22:18:19.504Z,22.27
2023-03-31T22:20:21.074Z,22.26
2023-03-31T22:22:22.397Z,22.31
2023-03-31T22:24:23.707Z,21.97
2023-03-31T22:26:24.997Z,21.87
2023-03-31T22:28:26.332Z,21.92
2023-03-31T22:30:27.773Z,22.08
2023-03-31T22:32:29.152Z,22.08
2023-03-31T22:34:33.400Z,22.06
2023-03-31T22:36:34.702Z,22.12
2023-03-31T22:38:36.024Z,22.17
2023-03-31T22:40:37.335Z,22.11
2023-03-31T22:42:38.718Z,22.16
2023-03-31T22:44:41.222Z,22.10
2023-03-31T22:46:42.593Z,22.08
2023-03-31T22:48:44.156Z,22.15
2023-03-31T22:50:45.708Z,21.96
2023-03-31T22:52:47.114Z,21.58
2023-03-31T22:54:48.408Z,21.63
2023-03-31T22:56:50.300Z,21.81
2023-03-31T22:58:51.669Z,21.94
2023-03-31T23:00:53.005Z,22.08
2023-03-31T23:02:54.413Z,22.17
2023-03-31T23:04:56.041Z,22.16
2023-03-31T23:06:57.651Z,22.23
2023-03-31T23:08:58.941Z,22.45
2023-03-31T23:11:00.784Z,22.41
2023-03-31T23:13:02.136Z,22.36
2023-03-31T23:15:03.902Z,22.49
2023-03-31T23:17:05.634Z,22.59
2023-03-31T23:19:06.987Z,22.65
2023-03-31T23:21:08.341Z,22.72
2023-03-31T23:23:09.632Z,22.63
2023-03-31T23:25:10.931Z,22.63
2023-03-31T23:27:12.228Z,22.67
2023-03-31T23:29:13.521Z,22.65
2023-03-31T23:31:15.363Z,22.73
2023-03-31T23:33:16.791Z,22.65
2023-03-31T23:35:18.136Z,22.72
2023-03-31T23:37:19.500Z,22.64
2023-03-31T23:39:21.519Z,22.57
2023-03-31T23:41:22.928Z,22.58
2023-03-31T23:43:25.285Z,22.59
2023-03-31T23:45:27.245Z,22.65
2023-03-31T23:47:28.664Z,22.56
2023-03-31T23:49:32.853Z,22.47
2023-03-31T23:51:34.193Z,22.38
2023-03-31T23:53:35.702Z,22.33
2023-03-31T23:55:38.025Z,22.30
2023-03-31T23:57:39.422Z,22.33
2023-03-31T23:59:40.721Z,22.28
